Time;durP1;ratioP1;P1;durP2;ratioP2;P2;SDS_P1;SDS_P2;PMS_P1;PMS_P2;Temp;Humidity;BMP_temperature;BMP_pressure;BME280_temperature;BME280_humidity;BME280_pressure;Samples;Min_cycle;Max_cycle;Signal;HPM_P1;HPM_P2
2021/05/20 00:00:09;;;;;;;21.52;10.77;;;;;;;;;;8305078;28;20450;-68
2021/05/20 00:04:14;;;;;;;18.40;9.80;;;;;;;;;;8323832;28;20044;-68
2021/05/20 00:08:20;;;;;;;23.25;10.27;;;;;;;;;;8305390;28;20336;-68
2021/05/20 00:12:24;;;;;;;18.67;9.93;;;;;;;;;;8322722;28;20374;-68
2021/05/20 00:16:30;;;;;;;22.73;10.05;;;;;;;;;;8324104;28;20051;-68
2021/05/20 00:20:34;;;;;;;20.35;10.02;;;;;;;;;;8324083;28;20378;-68
2021/05/20 00:24:39;;;;;;;20.70;9.60;;;;;;;;;;8330534;28;20328;-68
2021/05/20 00:28:45;;;;;;;20.17;10.07;;;;;;;;;;8330574;28;20374;-68
2021/05/20 00:32:50;;;;;;;20.85;9.98;;;;;;;;;;8327785;28;20351;-68
2021/05/20 00:36:55;;;;;;;22.55;11.85;;;;;;;;;;8328898;28;20504;-68
2021/05/20 00:41:01;;;;;;;23.98;10.48;;;;;;;;;;8326399;28;20056;-69
2021/05/20 00:45:07;;;;;;;21.45;11.52;;;;;;;;;;8329392;28;20481;-68
2021/05/20 00:49:12;;;;;;;20.10;10.02;;;;;;;;;;8327043;28;20056;-69
2021/05/20 00:53:17;;;;;;;17.98;9.43;;;;;;;;;;8327959;28;20387;-68
2021/05/20 00:57:23;;;;;;;19.08;9.82;;;;;;;;;;8328605;28;20416;-69
2021/05/20 01:01:28;;;;;;;17.35;9.38;;;;;;;;;;8321713;28;20475;-68
2021/05/20 01:05:34;;;;;;;15.65;8.88;;;;;;;;;;8301526;28;20474;-69
2021/05/20 01:09:39;;;;;;;19.98;9.98;;;;;;;;;;8276910;28;20394;-68
2021/05/20 01:13:44;;;;;;;19.88;9.32;;;;;;;;;;8293735;28;20439;-68
2021/05/20 01:17:54;;;;;;;16.67;8.68;;;;;;;;;;8292829;28;20056;-68
2021/05/20 01:21:58;;;;;;;21.05;9.07;;;;;;;;;;8294288;28;20448;-68
2021/05/20 01:26:04;;;;;;;24.80;9.65;;;;;;;;;;8259320;28;20372;-68
2021/05/20 01:30:11;;;;;;;18.38;10.35;;;;;;;;;;8275917;28;20337;-68
2021/05/20 01:34:16;;;;;;;19.42;9.52;;;;;;;;;;8275086;28;20474;-70
2021/05/20 01:42:46;;;;;;;21.67;9.68;;;;;;;;;;8258119;28;20056;-68
2021/05/20 01:46:51;;;;;;;20.02;9.70;;;;;;;;;;8260104;28;20056;-68
2021/05/20 01:51:15;;;;;;;19.02;9.10;;;;;;;;;;8259160;28;20403;-68
2021/05/20 01:55:21;;;;;;;16.08;8.77;;;;;;;;;;8259287;28;20456;-68
2021/05/20 01:59:26;;;;;;;17.88;8.57;;;;;;;;;;8260741;28;20466;-68
2021/05/20 02:03:31;;;;;;;17.35;9.40;;;;;;;;;;8258917;28;20367;-68
2021/05/20 02:07:34;;;;;;;16.95;9.30;;;;;;;;;;8258291;28;20375;-69
2021/05/20 02:11:39;;;;;;;16.77;8.32;;;;;;;;;;8261529;28;20499;-68
2021/05/20 02:15:44;;;;;;;11.38;7.43;;;;;;;;;;8258494;28;20463;-68
2021/05/20 02:19:50;;;;;;;13.00;8.30;;;;;;;;;;8258676;28;20474;-69
2021/05/20 02:23:55;;;;;;;14.15;7.45;;;;;;;;;;8259834;28;20067;-69
2021/05/20 02:28:00;;;;;;;13.63;7.15;;;;;;;;;;8258678;28;20464;-68
2021/05/20 02:32:05;;;;;;;11.23;6.80;;;;;;;;;;8259138;28;20071;-68
2021/05/20 02:36:10;;;;;;;14.93;7.60;;;;;;;;;;8258484;28;20119;-68
2021/05/20 02:40:16;;;;;;;15.45;8.60;;;;;;;;;;8272202;28;20367;-69
2021/05/20 02:44:22;;;;;;;14.13;8.55;;;;;;;;;;8274329;28;20359;-70
2021/05/20 02:48:27;;;;;;;19.10;9.55;;;;;;;;;;8291617;28;20383;-68
2021/05/20 02:52:33;;;;;;;22.67;10.25;;;;;;;;;;8292609;28;20405;-69
2021/05/20 02:56:37;;;;;;;20.98;10.00;;;;;;;;;;8273011;28;20462;-68
2021/05/20 03:00:45;;;;;;;17.48;9.77;;;;;;;;;;8290870;28;20490;-68
2021/05/20 03:04:52;;;;;;;19.77;9.50;;;;;;;;;;8273383;28;20459;-68
2021/05/20 03:08:57;;;;;;;20.23;10.25;;;;;;;;;;8289996;28;20052;-68
2021/05/20 03:13:02;;;;;;;18.45;9.38;;;;;;;;;;8289708;28;20048;-68
2021/05/20 03:17:11;;;;;;;20.13;10.40;;;;;;;;;;8272747;28;20367;-68
2021/05/20 03:21:16;;;;;;;16.77;8.57;;;;;;;;;;8290207;28;20456;-68
2021/05/20 03:25:21;;;;;;;18.33;9.38;;;;;;;;;;8272765;28;20053;-68
2021/05/20 03:29:26;;;;;;;18.42;9.02;;;;;;;;;;8272651;28;20439;-67
2021/05/20 03:33:32;;;;;;;17.25;8.63;;;;;;;;;;8290256;28;20462;-68
2021/05/20 03:37:37;;;;;;;15.48;8.05;;;;;;;;;;8288957;28;20475;-69
2021/05/20 03:41:42;;;;;;;17.10;8.93;;;;;;;;;;8289060;28;20056;-68
2021/05/20 03:45:47;;;;;;;19.08;10.00;;;;;;;;;;8290900;28;20376;-68
2021/05/20 03:49:52;;;;;;;15.48;9.20;;;;;;;;;;8289703;28;20470;-70
2021/05/20 03:53:58;;;;;;;20.35;9.52;;;;;;;;;;8289395;28;20402;-69
2021/05/20 03:58:02;;;;;;;18.83;9.82;;;;;;;;;;8276220;28;20479;-68
2021/05/20 04:02:08;;;;;;;18.77;9.32;;;;;;;;;;8296880;28;20409;-68
2021/05/20 04:06:13;;;;;;;20.65;9.15;;;;;;;;;;8296193;28;20052;-70
2021/05/20 04:10:18;;;;;;;19.83;8.75;;;;;;;;;;8277480;28;20385;-68
2021/05/20 04:14:23;;;;;;;16.08;8.57;;;;;;;;;;8295102;28;20379;-68
2021/05/20 04:18:29;;;;;;;18.27;8.88;;;;;;;;;;8295376;28;20333;-68
2021/05/20 04:22:33;;;;;;;15.43;7.95;;;;;;;;;;8262571;28;20483;-68
2021/05/20 04:26:38;;;;;;;16.65;8.40;;;;;;;;;;8278261;28;20115;-68
2021/05/20 04:30:44;;;;;;;16.02;6.88;;;;;;;;;;8296345;28;20340;-68
2021/05/20 04:34:49;;;;;;;15.63;5.70;;;;;;;;;;8278001;28;20440;-68
2021/05/20 04:38:53;;;;;;;12.20;6.65;;;;;;;;;;8294564;28;20372;-68
2021/05/20 04:42:58;;;;;;;11.25;5.50;;;;;;;;;;8296151;28;20459;-68
2021/05/20 04:47:02;;;;;;;9.85;6.05;;;;;;;;;;8277298;28;20448;-68
2021/05/20 04:51:07;;;;;;;11.15;5.65;;;;;;;;;;8295443;28;20078;-68
2021/05/20 04:55:14;;;;;;;8.90;5.55;;;;;;;;;;8294642;28;20052;-68
2021/05/20 04:59:20;;;;;;;14.10;5.67;;;;;;;;;;8277796;28;20056;-68
2021/05/20 05:03:24;;;;;;;16.63;6.97;;;;;;;;;;8294318;28;20504;-68
2021/05/20 05:07:29;;;;;;;9.60;5.57;;;;;;;;;;8294229;28;20489;-68
2021/05/20 05:11:36;;;;;;;12.25;7.40;;;;;;;;;;8277533;28;20052;-68
2021/05/20 05:15:41;;;;;;;16.60;6.95;;;;;;;;;;8296091;28;20370;-68
2021/05/20 05:19:46;;;;;;;17.92;8.25;;;;;;;;;;8293607;28;20060;-68
2021/05/20 05:23:50;;;;;;;14.60;6.32;;;;;;;;;;8293344;28;20511;-68
2021/05/20 05:27:55;;;;;;;14.07;6.93;;;;;;;;;;8293504;28;20439;-68
2021/05/20 05:32:02;;;;;;;13.00;7.13;;;;;;;;;;8293396;28;20510;-69
2021/05/20 05:36:07;;;;;;;13.00;6.28;;;;;;;;;;8277961;28;20360;-70
2021/05/20 05:40:15;;;;;;;13.55;7.00;;;;;;;;;;8294347;28;20398;-69
2021/05/20 05:44:18;;;;;;;12.55;6.72;;;;;;;;;;8292407;28;20494;-68
2021/05/20 05:48:23;;;;;;;12.20;6.43;;;;;;;;;;8294377;28;20459;-69
2021/05/20 05:52:28;;;;;;;9.13;5.50;;;;;;;;;;8293036;28;20056;-68
2021/05/20 05:56:34;;;;;;;9.18;5.78;;;;;;;;;;8293370;28;20372;-68
2021/05/20 06:00:50;;;;;;;9.13;4.80;;;;;;;;;;8295788;28;20481;-68
2021/05/20 06:04:55;;;;;;;10.38;5.07;;;;;;;;;;8295960;28;20070;-68
2021/05/20 06:09:07;;;;;;;7.78;4.53;;;;;;;;;;8295212;28;20056;-69
2021/05/20 06:13:13;;;;;;;12.93;4.88;;;;;;;;;;8292449;28;20078;-69
2021/05/20 06:17:18;;;;;;;9.85;5.15;;;;;;;;;;8291631;28;20489;-68
2021/05/20 06:21:24;;;;;;;10.38;5.20;;;;;;;;;;8290986;28;20475;-68
2021/05/20 06:25:29;;;;;;;9.98;4.75;;;;;;;;;;8292027;28;20489;-69
2021/05/20 06:29:34;;;;;;;8.13;4.38;;;;;;;;;;8292653;28;20497;-68
2021/05/20 06:33:38;;;;;;;8.73;4.18;;;;;;;;;;8291327;28;20078;-68
2021/05/20 06:37:43;;;;;;;7.97;3.70;;;;;;;;;;8292302;28;20399;-69
2021/05/20 06:41:48;;;;;;;10.07;4.05;;;;;;;;;;8290061;28;20482;-69
2021/05/20 06:45:53;;;;;;;9.80;4.60;;;;;;;;;;8290535;28;20075;-69
2021/05/20 06:49:58;;;;;;;10.65;4.47;;;;;;;;;;8271435;28;20475;-68
2021/05/20 06:54:02;;;;;;;12.48;4.70;;;;;;;;;;8290975;28;20467;-69
2021/05/20 07:02:31;;;;;;;8.70;4.60;;;;;;;;;;8272759;28;20388;-69
2021/05/20 07:06:37;;;;;;;9.45;4.30;;;;;;;;;;8289888;28;20375;-69
2021/05/20 07:11:00;;;;;;;8.25;3.55;;;;;;;;;;8276194;28;20397;-69
2021/05/20 07:15:07;;;;;;;5.63;3.08;;;;;;;;;;8293148;28;20371;-69
2021/05/20 07:19:12;;;;;;;4.63;2.92;;;;;;;;;;8288750;28;20375;-69
2021/05/20 07:23:18;;;;;;;5.15;2.47;;;;;;;;;;8290110;28;20478;-69
2021/05/20 07:27:23;;;;;;;4.28;2.47;;;;;;;;;;8290863;28;20336;-69
2021/05/20 07:31:29;;;;;;;4.22;1.90;;;;;;;;;;8276867;28;20075;-69
2021/05/20 07:35:34;;;;;;;3.33;1.70;;;;;;;;;;8277769;28;20466;-69
2021/05/20 07:39:39;;;;;;;4.45;1.60;;;;;;;;;;8295671;28;20501;-69
2021/05/20 07:43:44;;;;;;;5.18;1.55;;;;;;;;;;8279163;28;20385;-69
2021/05/20 07:47:49;;;;;;;3.88;1.30;;;;;;;;;;8280044;28;20390;-68
2021/05/20 07:51:55;;;;;;;5.10;1.30;;;;;;;;;;8296061;28;20486;-69
2021/05/20 07:55:58;;;;;;;4.82;1.10;;;;;;;;;;8277903;28;20379;-69
2021/05/20 08:00:06;;;;;;;2.10;1.40;;;;;;;;;;8294957;28;20439;-70
2021/05/20 08:04:23;;;;;;;5.75;1.23;;;;;;;;;;8261412;28;20421;-69
2021/05/20 08:08:48;;;;;;;2.47;1.20;;;;;;;;;;8295737;28;20363;-68
2021/05/20 08:12:52;;;;;;;2.88;1.23;;;;;;;;;;8295438;28;20380;-69
2021/05/20 08:16:58;;;;;;;2.72;1.25;;;;;;;;;;8296435;28;20512;-70
2021/05/20 08:21:05;;;;;;;7.03;1.35;;;;;;;;;;8294649;28;20052;-69
2021/05/20 08:25:10;;;;;;;1.75;0.98;;;;;;;;;;8294281;28;20044;-69
2021/05/20 08:29:16;;;;;;;1.55;1.15;;;;;;;;;;8260564;28;20075;-70
2021/05/20 08:33:21;;;;;;;3.33;0.95;;;;;;;;;;8278345;28;20380;-69
2021/05/20 08:37:26;;;;;;;1.73;0.85;;;;;;;;;;8294190;28;20459;-69
2021/05/20 08:41:35;;;;;;;1.92;1.17;;;;;;;;;;8259716;28;20469;-69
2021/05/20 08:45:40;;;;;;;1.05;0.85;;;;;;;;;;8262673;28;20053;-69
2021/05/20 08:49:47;;;;;;;3.13;1.20;;;;;;;;;;8265954;28;20052;-70
2021/05/20 08:53:52;;;;;;;4.93;1.05;;;;;;;;;;8263096;28;20402;-69
2021/05/20 08:57:58;;;;;;;6.40;1.20;;;;;;;;;;8260636;28;20379;-69
2021/05/20 09:02:03;;;;;;;2.17;1.05;;;;;;;;;;8262993;28;20357;-68
2021/05/20 09:06:09;;;;;;;3.40;1.38;;;;;;;;;;8268213;28;20053;-68
2021/05/20 09:10:22;;;;;;;2.03;0.77;;;;;;;;;;8264533;28;20341;-69
2021/05/20 09:14:34;;;;;;;3.28;1.08;;;;;;;;;;8246020;28;20488;-68
2021/05/20 09:18:41;;;;;;;0.70;0.47;;;;;;;;;;8260267;28;20387;-69
2021/05/20 09:22:49;;;;;;;5.35;0.65;;;;;;;;;;8275118;28;20485;-68
2021/05/20 09:26:54;;;;;;;1.27;0.70;;;;;;;;;;8260287;28;20403;-69
2021/05/20 09:30:59;;;;;;;4.15;0.70;;;;;;;;;;8260270;28;20064;-69
2021/05/20 09:35:05;;;;;;;2.78;0.80;;;;;;;;;;8258673;28;20045;-68
2021/05/20 09:39:16;;;;;;;3.10;0.90;;;;;;;;;;8263173;28;20384;-69
2021/05/20 09:43:24;;;;;;;1.77;0.70;;;;;;;;;;8293917;28;20367;-69
2021/05/20 09:47:30;;;;;;;3.33;1.00;;;;;;;;;;8274866;28;20045;-69
2021/05/20 09:51:35;;;;;;;1.25;0.82;;;;;;;;;;8291624;28;20375;-69
2021/05/20 09:55:53;;;;;;;1.83;0.90;;;;;;;;;;8274557;28;20329;-68
2021/05/20 10:00:20;;;;;;;0.63;0.40;;;;;;;;;;8276050;28;20460;-69
2021/05/20 10:04:29;;;;;;;1.30;0.80;;;;;;;;;;8275244;28;20386;-68
2021/05/20 10:08:39;;;;;;;1.40;0.80;;;;;;;;;;8275464;28;20363;-70
2021/05/20 10:12:46;;;;;;;4.32;1.55;;;;;;;;;;8291053;28;20502;-68
2021/05/20 10:16:50;;;;;;;2.85;0.47;;;;;;;;;;8273913;28;20382;-68
2021/05/20 10:21:01;;;;;;;1.48;0.50;;;;;;;;;;8290733;28;20483;-69
2021/05/20 10:25:09;;;;;;;0.52;0.40;;;;;;;;;;8291227;28;20395;-67
2021/05/20 10:29:14;;;;;;;3.60;0.50;;;;;;;;;;8275562;28;20375;-67
2021/05/20 10:33:26;;;;;;;0.85;0.25;;;;;;;;;;8291147;28;20464;-67
2021/05/20 10:37:40;;;;;;;4.05;0.50;;;;;;;;;;8257293;28;20045;-66
2021/05/20 10:41:44;;;;;;;1.25;0.30;;;;;;;;;;8290502;28;20406;-66
2021/05/20 10:46:08;;;;;;;0.60;0.40;;;;;;;;;;8290413;28;20367;-66
2021/05/20 10:50:12;;;;;;;1.80;0.30;;;;;;;;;;8290611;28;20464;-66
2021/05/20 10:54:17;;;;;;;0.30;0.30;;;;;;;;;;8290959;28;20414;-67
2021/05/20 10:58:35;;;;;;;1.02;0.40;;;;;;;;;;8274272;28;20349;-67
2021/05/20 11:02:53;;;;;;;0.50;0.20;;;;;;;;;;8274013;28;20057;-66
2021/05/20 11:06:59;;;;;;;0.65;0.40;;;;;;;;;;8290429;28;20375;-66
2021/05/20 11:11:04;;;;;;;1.23;0.30;;;;;;;;;;8290128;28;20385;-68
2021/05/20 11:15:17;;;;;;;3.00;0.30;;;;;;;;;;8290114;28;20369;-69
2021/05/20 11:19:26;;;;;;;1.70;0.45;;;;;;;;;;8271511;28;20470;-71
2021/05/20 11:23:33;;;;;;;1.48;0.38;;;;;;;;;;8291732;28;20448;-70
2021/05/20 11:27:40;;;;;;;1.30;0.65;;;;;;;;;;8291707;28;20079;-69
2021/05/20 11:31:45;;;;;;;5.18;0.30;;;;;;;;;;8273126;28;20082;-67
2021/05/20 11:36:10;;;;;;;0.35;0.35;;;;;;;;;;8290529;28;20048;-67
2021/05/20 11:40:30;;;;;;;1.00;0.50;;;;;;;;;;8291300;28;20456;-69
2021/05/20 11:44:35;;;;;;;1.10;0.30;;;;;;;;;;8273827;28;20405;-69
2021/05/20 11:49:01;;;;;;;1.70;0.52;;;;;;;;;;8292930;28;20473;-69
2021/05/20 11:53:13;;;;;;;0.93;0.40;;;;;;;;;;8292925;28;20435;-68
2021/05/20 11:57:23;;;;;;;1.30;0.40;;;;;;;;;;8295821;28;20470;-69
2021/05/20 12:01:28;;;;;;;2.58;0.40;;;;;;;;;;8294179;28;20375;-69
2021/05/20 12:05:36;;;;;;;0.52;0.50;;;;;;;;;;8275646;28;20048;-70
2021/05/20 12:09:47;;;;;;;3.95;1.02;;;;;;;;;;8275142;28;20387;-70
2021/05/20 12:13:51;;;;;;;1.55;0.70;;;;;;;;;;8294469;28;20065;-69
2021/05/20 12:18:01;;;;;;;0.50;0.35;;;;;;;;;;8294921;28;20382;-69
2021/05/20 12:22:16;;;;;;;3.03;0.73;;;;;;;;;;8279175;28;20498;-69
2021/05/20 12:26:24;;;;;;;2.40;0.50;;;;;;;;;;8282358;28;20395;-69
2021/05/20 12:30:36;;;;;;;2.78;0.50;;;;;;;;;;8297921;28;20367;-69
2021/05/20 12:34:41;;;;;;;1.98;0.40;;;;;;;;;;8279650;28;20133;-69
2021/05/20 12:38:46;;;;;;;0.85;0.50;;;;;;;;;;8299092;28;20078;-69
2021/05/20 12:43:11;;;;;;;0.50;0.40;;;;;;;;;;8281038;28;20452;-70
2021/05/20 12:47:17;;;;;;;0.88;0.38;;;;;;;;;;8287987;28;20371;-69
2021/05/20 12:51:27;;;;;;;1.02;0.52;;;;;;;;;;8276759;28;20474;-69
2021/05/20 12:55:42;;;;;;;1.13;0.57;;;;;;;;;;8277824;28;20347;-68
2021/05/20 12:59:47;;;;;;;1.45;0.77;;;;;;;;;;8296148;28;20497;-71
2021/05/20 13:03:58;;;;;;;1.02;0.52;;;;;;;;;;8297809;28;20447;-69
2021/05/20 13:08:30;;;;;;;1.85;0.57;;;;;;;;;;8277072;28;20489;-68
2021/05/20 13:12:43;;;;;;;1.83;0.93;;;;;;;;;;8261671;28;20427;-68
2021/05/20 13:16:52;;;;;;;1.83;0.52;;;;;;;;;;8277072;28;20045;-69
2021/05/20 13:25:37;;;;;;;1.38;0.63;;;;;;;;;;8293931;28;20414;-69
2021/05/20 13:29:45;;;;;;;1.70;0.75;;;;;;;;;;8292916;28;20463;-69
2021/05/20 13:33:50;;;;;;;3.85;1.27;;;;;;;;;;8277601;28;20377;-69
2021/05/20 13:37:54;;;;;;;1.80;0.68;;;;;;;;;;8293127;28;20075;-69
2021/05/20 13:41:58;;;;;;;7.30;1.00;;;;;;;;;;8258880;28;20360;-68
2021/05/20 13:46:03;;;;;;;2.05;0.70;;;;;;;;;;8259765;28;20375;-68
2021/05/20 13:50:09;;;;;;;1.30;0.63;;;;;;;;;;8260542;28;20344;-69
2021/05/20 13:54:15;;;;;;;1.02;0.40;;;;;;;;;;8258934;28;20048;-68
2021/05/20 13:58:20;;;;;;;1.25;0.57;;;;;;;;;;8260890;28;20422;-68
2021/05/20 14:02:32;;;;;;;1.27;0.60;;;;;;;;;;8259788;28;20468;-69
2021/05/20 14:06:37;;;;;;;8.70;3.25;;;;;;;;;;8259511;28;20478;-69
2021/05/20 14:10:42;;;;;;;5.28;1.85;;;;;;;;;;8259566;28;20349;-69
2021/05/20 14:14:48;;;;;;;7.03;3.78;;;;;;;;;;8259426;28;20557;-68
2021/05/20 14:18:53;;;;;;;2.33;1.35;;;;;;;;;;8259210;28;20471;-69
2021/05/20 14:23:18;;;;;;;3.08;2.00;;;;;;;;;;8261401;28;20041;-69
2021/05/20 14:27:23;;;;;;;0.93;0.60;;;;;;;;;;8259681;28;20476;-69
2021/05/20 14:31:28;;;;;;;1.50;0.45;;;;;;;;;;8261251;28;20478;-69
2021/05/20 14:35:33;;;;;;;6.65;1.38;;;;;;;;;;8258606;28;20443;-69
2021/05/20 14:39:38;;;;;;;0.70;0.50;;;;;;;;;;8262291;28;20479;-69
2021/05/20 14:43:43;;;;;;;2.58;2.00;;;;;;;;;;8273472;28;20357;-68
2021/05/20 14:47:48;;;;;;;5.30;3.88;;;;;;;;;;8290642;28;20375;-69
2021/05/20 14:51:53;;;;;;;3.15;1.98;;;;;;;;;;8289916;28;20478;-68
2021/05/20 14:56:03;;;;;;;0.80;0.50;;;;;;;;;;8289153;28;20390;-68
2021/05/20 15:09:09;;;;;;;1.27;0.63;;;;;;;;;;8292677;28;20455;-68
2021/05/20 15:13:19;;;;;;;1.65;0.70;;;;;;;;;;8291398;28;20452;-68
2021/05/20 15:17:29;;;;;;;0.77;0.70;;;;;;;;;;8271788;28;20340;-68
2021/05/20 15:21:37;;;;;;;1.23;0.82;;;;;;;;;;8291879;28;20411;-68
2021/05/20 15:25:46;;;;;;;4.22;1.20;;;;;;;;;;8272811;28;20049;-68
2021/05/20 15:29:50;;;;;;;2.45;0.80;;;;;;;;;;8290227;28;20463;-69
2021/05/20 15:33:54;;;;;;;1.25;0.77;;;;;;;;;;8289640;28;20052;-68
2021/05/20 15:37:58;;;;;;;0.82;0.47;;;;;;;;;;8290016;28;20478;-69
2021/05/20 15:42:03;;;;;;;2.28;0.73;;;;;;;;;;8289059;28;20434;-68
2021/05/20 15:46:08;;;;;;;1.27;0.70;;;;;;;;;;8289821;28;20387;-68
2021/05/20 15:50:25;;;;;;;2.40;0.80;;;;;;;;;;8274024;28;20440;-69
2021/05/20 15:54:30;;;;;;;1.50;0.80;;;;;;;;;;8295863;28;20387;-68
2021/05/20 15:58:35;;;;;;;3.22;1.05;;;;;;;;;;8278435;28;20356;-67
2021/05/20 16:02:40;;;;;;;1.30;0.90;;;;;;;;;;8295466;28;20391;-68
2021/05/20 16:06:47;;;;;;;6.13;1.15;;;;;;;;;;8278629;28;20210;-68
2021/05/20 16:11:03;;;;;;;4.78;1.35;;;;;;;;;;8296631;28;20371;-68
2021/05/20 16:15:11;;;;;;;1.08;0.80;;;;;;;;;;8296700;28;20494;-68
2021/05/20 16:19:16;;;;;;;2.05;1.10;;;;;;;;;;8298136;28;20324;-70
2021/05/20 16:23:28;;;;;;;3.55;1.80;;;;;;;;;;8297288;28;20467;-68
2021/05/20 16:27:49;;;;;;;7.05;1.85;;;;;;;;;;8294974;28;20451;-69
2021/05/20 16:36:25;;;;;;;9.63;1.85;;;;;;;;;;8293295;28;20491;-68
2021/05/20 16:40:35;;;;;;;7.45;2.33;;;;;;;;;;8277283;28;20359;-69
2021/05/20 16:44:41;;;;;;;3.10;1.52;;;;;;;;;;8294544;28;20447;-68
2021/05/20 16:48:53;;;;;;;3.20;1.60;;;;;;;;;;8294479;28;20489;-68
2021/05/20 16:52:58;;;;;;;5.10;1.35;;;;;;;;;;8275812;28;20367;-69
2021/05/20 16:57:12;;;;;;;5.13;1.10;;;;;;;;;;8276585;28;20115;-68
2021/05/20 17:01:19;;;;;;;2.50;1.42;;;;;;;;;;8277419;28;20060;-68
2021/05/20 17:05:26;;;;;;;2.05;1.10;;;;;;;;;;8293120;28;20467;-68
2021/05/20 17:09:31;;;;;;;2.38;1.35;;;;;;;;;;8258962;28;20048;-68
2021/05/20 17:13:37;;;;;;;1.77;1.40;;;;;;;;;;8292476;28;20407;-69
2021/05/20 17:17:42;;;;;;;4.53;1.48;;;;;;;;;;8275857;28;20376;-68
2021/05/20 17:21:47;;;;;;;19.88;2.30;;;;;;;;;;8276170;28;20459;-68
2021/05/20 17:25:53;;;;;;;4.45;1.35;;;;;;;;;;8293575;28;20372;-68
2021/05/20 17:29:59;;;;;;;2.00;1.33;;;;;;;;;;8276197;28;20451;-68
2021/05/20 17:34:04;;;;;;;1.75;1.15;;;;;;;;;;8294281;28;20371;-68
2021/05/20 17:38:09;;;;;;;2.60;1.40;;;;;;;;;;8277336;28;20353;-70
2021/05/20 17:42:14;;;;;;;2.10;1.33;;;;;;;;;;8292197;28;20480;-68
2021/05/20 17:46:19;;;;;;;4.47;1.48;;;;;;;;;;8292144;28;20498;-68
2021/05/20 17:50:24;;;;;;;1.95;1.15;;;;;;;;;;8274794;28;20436;-67
2021/05/20 17:54:29;;;;;;;2.30;1.33;;;;;;;;;;8293993;28;20451;-68
2021/05/20 17:58:34;;;;;;;4.10;1.52;;;;;;;;;;8294196;28;20052;-68
2021/05/20 18:02:39;;;;;;;4.55;1.70;;;;;;;;;;8295038;28;20452;-68
2021/05/20 18:06:44;;;;;;;4.70;1.90;;;;;;;;;;8291605;28;20479;-68
2021/05/20 18:10:56;;;;;;;3.33;1.70;;;;;;;;;;8291218;28;20368;-68
2021/05/20 18:15:04;;;;;;;7.35;2.42;;;;;;;;;;8293053;28;20506;-67
2021/05/20 18:19:23;;;;;;;10.55;5.57;;;;;;;;;;8274813;28;20371;-68
2021/05/20 18:23:28;;;;;;;9.40;3.10;;;;;;;;;;8274619;28;20393;-68
2021/05/20 18:27:33;;;;;;;10.95;5.03;;;;;;;;;;8292139;28;20443;-69
2021/05/20 18:31:38;;;;;;;14.38;5.82;;;;;;;;;;8292007;28;20468;-68
2021/05/20 18:35:44;;;;;;;15.00;6.07;;;;;;;;;;8293506;28;20048;-68
2021/05/20 18:39:51;;;;;;;19.20;8.73;;;;;;;;;;8292355;28;20066;-68
2021/05/20 18:43:55;;;;;;;13.00;6.70;;;;;;;;;;8291082;28;20379;-68
2021/05/20 18:47:59;;;;;;;16.00;6.40;;;;;;;;;;8292666;28;20354;-68
2021/05/20 18:52:07;;;;;;;17.67;6.85;;;;;;;;;;8293348;28;20489;-68
2021/05/20 18:56:12;;;;;;;21.50;9.00;;;;;;;;;;8274576;28;20501;-68
2021/05/20 19:00:21;;;;;;;26.48;10.35;;;;;;;;;;8294006;28;20525;-68
2021/05/20 19:04:26;;;;;;;37.28;12.95;;;;;;;;;;8274691;28;20367;-68
2021/05/20 19:08:32;;;;;;;28.75;10.50;;;;;;;;;;8292632;28;20482;-68
2021/05/20 19:12:37;;;;;;;17.92;7.82;;;;;;;;;;8275823;28;20447;-68
2021/05/20 19:16:44;;;;;;;24.73;10.85;;;;;;;;;;8274650;28;20479;-68
2021/05/20 19:20:51;;;;;;;17.70;6.60;;;;;;;;;;8291935;28;20473;-68
2021/05/20 19:24:55;;;;;;;9.85;4.40;;;;;;;;;;8291833;28;20052;-68
2021/05/20 19:29:08;;;;;;;5.80;2.95;;;;;;;;;;8293338;28;20044;-68
2021/05/20 19:33:13;;;;;;;5.90;2.95;;;;;;;;;;8300331;28;20364;-68
2021/05/20 19:37:21;;;;;;;6.15;2.80;;;;;;;;;;8297078;28;20493;-68
2021/05/20 19:41:26;;;;;;;14.55;3.42;;;;;;;;;;8297346;28;20493;-68
2021/05/20 19:45:31;;;;;;;15.45;5.93;;;;;;;;;;8264557;28;20133;-68
2021/05/20 19:49:40;;;;;;;10.77;4.43;;;;;;;;;;8296976;28;20473;-67
2021/05/20 19:53:52;;;;;;;7.00;3.53;;;;;;;;;;8278808;28;20083;-68
2021/05/20 20:02:26;;;;;;;11.65;4.70;;;;;;;;;;8281565;28;20517;-68
2021/05/20 20:06:44;;;;;;;16.23;6.25;;;;;;;;;;8296211;28;20405;-68
2021/05/20 20:11:07;;;;;;;15.40;5.88;;;;;;;;;;8295734;28;20378;-68
2021/05/20 20:15:12;;;;;;;10.20;3.95;;;;;;;;;;8296248;28;20486;-67
2021/05/20 20:19:26;;;;;;;7.30;3.33;;;;;;;;;;8295999;28;20382;-67
2021/05/20 20:23:38;;;;;;;26.95;11.70;;;;;;;;;;8297235;28;20351;-68
2021/05/20 20:27:51;;;;;;;9.98;4.32;;;;;;;;;;8278237;28;20386;-68
2021/05/20 20:31:57;;;;;;;9.88;5.93;;;;;;;;;;8295906;28;20048;-68
2021/05/20 20:36:18;;;;;;;51.10;25.85;;;;;;;;;;8294564;28;20468;-68
2021/05/20 20:44:51;;;;;;;24.55;13.90;;;;;;;;;;8278467;28;20056;-67
2021/05/20 20:48:58;;;;;;;18.90;9.27;;;;;;;;;;8261609;28;20052;-68
2021/05/20 20:53:03;;;;;;;7.55;5.15;;;;;;;;;;8294601;28;20498;-68
2021/05/20 20:57:09;;;;;;;9.02;4.60;;;;;;;;;;8276673;28;20119;-68
2021/05/20 21:01:16;;;;;;;7.00;3.90;;;;;;;;;;8277567;28;20367;-68
2021/05/20 21:05:21;;;;;;;25.98;8.75;;;;;;;;;;8295071;28;20382;-67
2021/05/20 21:09:26;;;;;;;10.50;4.55;;;;;;;;;;8292958;28;20072;-68
2021/05/20 21:13:31;;;;;;;6.55;3.58;;;;;;;;;;8293421;28;20387;-67
2021/05/20 21:17:35;;;;;;;7.32;3.67;;;;;;;;;;8293720;28;20451;-68
2021/05/20 21:21:40;;;;;;;9.88;4.13;;;;;;;;;;8293705;28;20367;-67
2021/05/20 21:25:46;;;;;;;7.93;3.55;;;;;;;;;;8293456;28;20458;-67
2021/05/20 21:29:51;;;;;;;10.05;3.67;;;;;;;;;;8293963;28;20368;-67
2021/05/20 21:33:56;;;;;;;8.63;3.88;;;;;;;;;;8295186;28;20053;-68
2021/05/20 21:38:01;;;;;;;11.90;4.63;;;;;;;;;;8293955;28;20360;-67
2021/05/20 21:42:08;;;;;;;6.78;3.90;;;;;;;;;;8292817;28;20481;-68
2021/05/20 21:46:13;;;;;;;10.10;4.95;;;;;;;;;;8292724;28;20387;-67
2021/05/20 21:50:19;;;;;;;10.45;4.20;;;;;;;;;;8291729;28;20075;-67
2021/05/20 21:54:24;;;;;;;9.73;4.57;;;;;;;;;;8292008;28;20475;-68
2021/05/20 21:58:46;;;;;;;11.73;4.22;;;;;;;;;;8292420;28;20582;-68
2021/05/20 22:02:53;;;;;;;11.48;4.45;;;;;;;;;;8292879;28;20071;-67
2021/05/20 22:07:03;;;;;;;8.80;4.43;;;;;;;;;;8291739;28;20459;-67
2021/05/20 22:11:12;;;;;;;10.23;3.95;;;;;;;;;;8292155;28;21002;-68
2021/05/20 22:15:17;;;;;;;10.00;4.05;;;;;;;;;;8293533;28;20383;-67
2021/05/20 22:19:22;;;;;;;9.73;3.85;;;;;;;;;;8273801;28;20481;-67
2021/05/20 22:23:28;;;;;;;9.90;4.43;;;;;;;;;;8291183;28;20376;-67
2021/05/20 22:27:42;;;;;;;6.57;4.00;;;;;;;;;;8291703;28;20348;-68
2021/05/20 22:32:02;;;;;;;12.60;4.65;;;;;;;;;;8291187;28;20078;-67
2021/05/20 22:36:07;;;;;;;10.02;4.47;;;;;;;;;;8260094;28;20367;-67
2021/05/20 22:40:14;;;;;;;10.85;4.85;;;;;;;;;;8291088;28;20048;-67
2021/05/20 22:44:19;;;;;;;9.13;4.47;;;;;;;;;;8274568;28;20459;-66
2021/05/20 22:48:24;;;;;;;9.07;4.07;;;;;;;;;;8273787;28;20467;-67
2021/05/20 22:52:29;;;;;;;7.07;4.78;;;;;;;;;;8291985;28;20483;-68
2021/05/20 22:56:37;;;;;;;8.88;4.75;;;;;;;;;;8290406;28;20452;-67
2021/05/20 23:00:42;;;;;;;10.85;5.07;;;;;;;;;;8288993;28;20386;-67
2021/05/20 23:04:47;;;;;;;7.30;5.13;;;;;;;;;;8290154;28;20060;-68
2021/05/20 23:08:52;;;;;;;8.98;4.68;;;;;;;;;;8273234;28;20356;-67
2021/05/20 23:12:57;;;;;;;7.78;4.32;;;;;;;;;;8273670;28;20351;-67
2021/05/20 23:17:04;;;;;;;7.95;4.72;;;;;;;;;;8290106;28;20052;-67
2021/05/20 23:21:08;;;;;;;7.78;4.80;;;;;;;;;;8289842;28;20505;-67
2021/05/20 23:25:13;;;;;;;8.98;4.50;;;;;;;;;;8291388;28;20460;-67
2021/05/20 23:29:18;;;;;;;10.50;4.32;;;;;;;;;;8291773;28;20056;-67
2021/05/20 23:33:32;;;;;;;12.52;5.57;;;;;;;;;;8290571;28;20375;-67
2021/05/20 23:37:36;;;;;;;10.23;4.90;;;;;;;;;;8272540;28;20360;-67
2021/05/20 23:41:43;;;;;;;7.88;4.38;;;;;;;;;;8290625;28;20368;-67
2021/05/20 23:45:49;;;;;;;9.15;4.28;;;;;;;;;;8273737;28;20470;-68
2021/05/20 23:49:53;;;;;;;7.93;4.95;;;;;;;;;;8289481;28;20403;-67
2021/05/20 23:53:58;;;;;;;11.25;5.07;;;;;;;;;;8289861;28;20399;-67
2021/05/20 23:58:03;;;;;;;11.00;5.13;;;;;;;;;;8289948;28;20399;-68
